createdAt,value
2022-08-12T00:01:06.118Z,3.42
2022-08-12T00:03:52.463Z,2.75
2022-08-12T00:06:40.024Z,3.88
2022-08-12T00:09:26.789Z,3.40
2022-08-12T00:12:13.413Z,3.42
2022-08-12T00:15:01.371Z,4.20
2022-08-12T00:17:47.611Z,4.18
2022-08-12T00:20:33.626Z,3.97
2022-08-12T00:23:19.981Z,3.45
2022-08-12T00:26:23.448Z,3.17
2022-08-12T00:29:11.485Z,3.47
2022-08-12T00:31:57.961Z,3.40
2022-08-12T00:34:45.783Z,3.58
2022-08-12T00:37:33.610Z,3.50
2022-08-12T00:40:19.784Z,2.90
2022-08-12T00:42:49.423Z,3.20
2022-08-12T00:45:16.508Z,2.88
2022-08-12T00:47:44.556Z,3.53
2022-08-12T00:50:18.979Z,2.95
2022-08-12T00:52:47.917Z,3.30
2022-08-12T00:55:16.807Z,3.30
2022-08-12T00:57:50.745Z,3.42
2022-08-12T01:00:24.934Z,3.28
2022-08-12T01:02:58.297Z,4.05
2022-08-12T01:05:45.188Z,4.07
2022-08-12T01:08:30.942Z,3.53
2022-08-12T01:11:16.941Z,3.53
2022-08-12T01:13:49.586Z,3.92
2022-08-12T01:16:24.275Z,3.70
2022-08-12T01:18:53.974Z,4.63
2022-08-12T01:21:45.249Z,4.03
2022-08-12T01:24:44.108Z,4.30
2022-08-12T01:27:13.475Z,3.75
2022-08-12T01:29:45.271Z,3.60
2022-08-12T01:32:17.137Z,3.10
2022-08-12T01:35:07.915Z,3.38
2022-08-12T01:37:41.875Z,3.50
2022-08-12T01:40:35.602Z,4.07
2022-08-12T01:43:05.935Z,3.20
2022-08-12T01:45:40.577Z,3.88
2022-08-12T01:48:34.999Z,3.67
2022-08-12T01:52:15.928Z,7.18
2022-08-12T01:54:17.545Z,5.05
2022-08-12T01:56:53.113Z,7.80
2022-08-12T02:00:00.666Z,6.05
2022-08-12T02:02:30.934Z,9.68
2022-08-12T02:05:30.100Z,11.27
2022-08-12T02:08:40.808Z,12.02
2022-08-12T02:11:20.137Z,13.07
2022-08-12T02:13:50.744Z,14.32
2022-08-12T02:16:46.107Z,13.20
2022-08-12T02:19:51.318Z,13.80
2022-08-12T02:22:18.371Z,13.55
2022-08-12T02:24:46.900Z,14.20
2022-08-12T02:27:15.530Z,12.80
2022-08-12T02:29:42.739Z,10.73
2022-08-12T02:32:10.117Z,12.60
2022-08-12T02:34:38.031Z,13.00
2022-08-12T02:37:06.402Z,11.93
2022-08-12T02:39:36.397Z,12.65
2022-08-12T02:42:07.217Z,13.98
2022-08-12T02:44:40.471Z,12.82
2022-08-12T02:47:59.130Z,14.02
2022-08-12T02:49:58.563Z,13.82
2022-08-12T02:52:27.635Z,12.93
2022-08-12T02:55:01.794Z,13.30
2022-08-12T02:57:31.666Z,12.95
2022-08-12T03:00:04.268Z,13.38
2022-08-12T03:02:33.748Z,11.63
2022-08-12T03:05:03.518Z,11.90
2022-08-12T03:07:59.757Z,12.82
2022-08-12T03:10:36.727Z,14.45
2022-08-12T03:13:07.513Z,14.57
2022-08-12T03:15:36.015Z,13.65
2022-08-12T03:18:24.684Z,12.18
2022-08-12T03:21:00.348Z,12.32
2022-08-12T03:23:30.819Z,12.35
2022-08-12T03:26:03.218Z,11.98
2022-08-12T03:28:52.020Z,14.18
2022-08-12T03:31:22.166Z,10.40
2022-08-12T03:34:01.428Z,12.65
2022-08-12T03:36:36.653Z,14.23
2022-08-12T03:39:18.862Z,12.52
2022-08-12T03:42:10.711Z,12.85
2022-08-12T03:48:02.164Z,11.48
2022-08-12T03:50:48.916Z,11.13
2022-08-12T03:53:46.703Z,10.88
2022-08-12T03:56:33.431Z,11.90
2022-08-12T03:59:21.465Z,10.32
2022-08-12T04:01:57.970Z,9.73
2022-08-12T04:04:34.949Z,9.38
2022-08-12T04:07:10.757Z,8.15
2022-08-12T04:09:43.690Z,8.45
2022-08-12T04:12:40.123Z,9.30
2022-08-12T04:15:09.195Z,9.68
2022-08-12T04:17:37.708Z,8.80
2022-08-12T04:20:25.151Z,9.13
2022-08-12T04:22:54.545Z,10.70
2022-08-12T04:25:27.046Z,9.73
2022-08-12T04:27:55.183Z,7.85
2022-08-12T04:30:32.201Z,7.50
2022-08-12T04:33:01.044Z,9.20
2022-08-12T04:35:28.666Z,10.05
2022-08-12T04:37:58.402Z,8.68
2022-08-12T04:40:31.740Z,8.73
2022-08-12T04:43:01.543Z,8.40
2022-08-12T04:45:29.469Z,7.40
2022-08-12T04:47:56.993Z,7.32
2022-08-12T04:50:34.501Z,7.90
2022-08-12T04:53:05.678Z,5.70
2022-08-12T04:55:34.925Z,6.38
2022-08-12T04:58:02.164Z,5.68
2022-08-12T05:00:29.430Z,6.28
2022-08-12T05:02:56.579Z,6.75
2022-08-12T05:05:24.862Z,6.72
2022-08-12T05:07:54.271Z,7.20
2022-08-12T05:10:34.051Z,7.68
2022-08-12T05:13:08.005Z,7.22
2022-08-12T05:16:03.924Z,7.38
2022-08-12T05:18:29.441Z,6.70
2022-08-12T05:20:58.901Z,7.25
2022-08-12T05:23:26.189Z,8.20
2022-08-12T05:25:57.420Z,9.10
2022-08-12T05:28:27.565Z,9.00
2022-08-12T05:30:55.791Z,8.38
2022-08-12T05:33:26.880Z,9.38
2022-08-12T05:35:54.113Z,9.13
2022-08-12T05:38:39.649Z,9.05
2022-08-12T05:41:19.288Z,7.60
2022-08-12T05:43:58.966Z,8.20
2022-08-12T05:46:27.362Z,7.38
2022-08-12T05:48:55.301Z,8.43
2022-08-12T05:51:32.312Z,6.85
2022-08-12T05:54:07.187Z,6.38
2022-08-12T05:56:36.324Z,5.63
2022-08-12T05:59:09.693Z,4.63
2022-08-12T06:02:12.713Z,4.40
2022-08-12T06:04:24.676Z,3.97
2022-08-12T06:06:53.733Z,4.28
2022-08-12T06:09:22.882Z,4.10
2022-08-12T06:12:04.185Z,3.65
2022-08-12T06:14:36.963Z,3.45
2022-08-12T06:17:06.159Z,3.60
2022-08-12T06:20:26.069Z,3.47
2022-08-12T06:22:20.433Z,3.20
2022-08-12T06:24:48.759Z,3.28
2022-08-12T06:27:19.058Z,3.15
2022-08-12T06:30:09.662Z,2.60
2022-08-12T06:32:34.459Z,2.88
2022-08-12T06:35:23.706Z,3.00
2022-08-12T06:37:56.915Z,3.08
2022-08-12T06:40:44.010Z,2.83
2022-08-12T06:43:11.177Z,3.10
2022-08-12T06:45:49.489Z,4.68
2022-08-12T06:48:17.711Z,4.10
2022-08-12T06:50:46.211Z,3.42
2022-08-12T06:53:13.527Z,2.90
2022-08-12T06:55:57.799Z,2.10
2022-08-12T06:58:25.812Z,2.15
2022-08-12T07:00:54.135Z,1.98
2022-08-12T07:03:29.985Z,1.50
2022-08-12T07:05:59.637Z,1.58
2022-08-12T07:08:31.618Z,1.80
2022-08-12T07:11:03.031Z,1.75
2022-08-12T07:16:27.038Z,1.30
2022-08-12T07:18:55.834Z,1.48
2022-08-12T07:22:02.050Z,1.50
2022-08-12T07:24:12.473Z,1.05
2022-08-12T07:26:44.437Z,1.20
2022-08-12T07:29:12.410Z,1.20
2022-08-12T07:31:39.674Z,1.40
2022-08-12T07:34:06.855Z,1.65
2022-08-12T07:36:35.624Z,1.23
2022-08-12T07:39:03.015Z,1.60
2022-08-12T07:41:32.230Z,1.60
2022-08-12T07:44:04.801Z,1.42
2022-08-12T07:46:39.056Z,1.52
2022-08-12T07:49:11.295Z,1.42
2022-08-12T07:51:39.600Z,1.63
2022-08-12T07:54:10.553Z,1.45
2022-08-12T07:56:40.186Z,1.40
2022-08-12T07:59:09.144Z,1.30
2022-08-12T08:01:40.269Z,0.93
2022-08-12T08:06:55.184Z,1.20
2022-08-12T08:09:24.471Z,1.20
2022-08-12T08:12:18.547Z,1.23
2022-08-12T08:14:47.233Z,1.10
2022-08-12T08:17:17.912Z,1.60
2022-08-12T08:20:03.206Z,1.27
2022-08-12T08:22:41.660Z,1.35
2022-08-12T08:25:20.414Z,1.08
2022-08-12T08:28:02.889Z,1.20
2022-08-12T08:30:32.271Z,1.00
2022-08-12T08:32:59.452Z,1.38
2022-08-12T08:35:28.145Z,0.98
2022-08-12T08:38:31.830Z,1.05
2022-08-12T08:42:15.532Z,1.00
2022-08-12T08:44:07.576Z,1.30
2022-08-12T08:46:38.191Z,1.13
2022-08-12T08:49:06.028Z,1.15
2022-08-12T08:51:33.435Z,1.50
2022-08-12T08:54:00.542Z,1.30
2022-08-12T08:56:29.995Z,1.05
2022-08-12T08:58:57.923Z,1.23
2022-08-12T09:01:26.304Z,1.55
2022-08-12T09:05:07.874Z,1.23
2022-08-12T09:06:53.824Z,1.20
2022-08-12T09:09:21.550Z,1.77
2022-08-12T09:14:54.702Z,1.38
2022-08-12T09:17:22.685Z,1.20
2022-08-12T09:19:57.252Z,1.15
2022-08-12T09:22:28.540Z,1.70
2022-08-12T09:27:57.921Z,1.27
2022-08-12T09:30:18.134Z,1.50
2022-08-12T09:33:18.514Z,1.30
2022-08-12T09:35:47.016Z,1.30
2022-08-12T09:38:33.821Z,1.70
2022-08-12T09:42:33.315Z,1.45
2022-08-12T09:44:38.294Z,1.60
2022-08-12T09:46:56.218Z,1.35
2022-08-12T09:49:27.821Z,1.23
2022-08-12T09:51:55.654Z,1.55
2022-08-12T09:54:33.183Z,1.30
2022-08-12T09:58:07.522Z,1.27
2022-08-12T10:00:13.207Z,1.35
2022-08-12T10:03:06.223Z,1.33
2022-08-12T10:06:26.883Z,1.20
2022-08-12T10:08:30.679Z,1.30
2022-08-12T10:11:20.356Z,1.40
2022-08-12T10:13:48.972Z,1.38
2022-08-12T10:16:22.612Z,1.27
2022-08-12T10:18:54.523Z,1.25
2022-08-12T10:21:36.009Z,1.10
2022-08-12T10:24:08.902Z,1.50
2022-08-12T10:30:37.983Z,1.13
2022-08-12T10:33:02.103Z,1.55
2022-08-12T10:35:20.137Z,1.58
2022-08-12T10:38:34.891Z,1.60
2022-08-12T10:40:37.773Z,1.38
2022-08-12T10:43:23.749Z,1.27
2022-08-12T10:45:57.251Z,1.42
2022-08-12T10:48:34.703Z,1.30
2022-08-12T10:51:52.036Z,1.50
2022-08-12T10:54:00.933Z,1.33
2022-08-12T10:56:34.679Z,1.25
2022-08-12T10:59:03.999Z,1.20
2022-08-12T11:04:18.042Z,1.30
2022-08-12T11:04:34.324Z,1.33
2022-08-12T11:08:34.580Z,1.42
2022-08-12T11:10:01.504Z,1.45
2022-08-12T11:12:56.258Z,1.48
2022-08-12T11:15:33.539Z,1.30
2022-08-12T11:18:18.332Z,1.55
2022-08-12T11:20:48.391Z,1.30
2022-08-12T11:23:35.734Z,1.35
2022-08-12T11:26:06.259Z,1.20
2022-08-12T11:28:37.015Z,1.40
2022-08-12T11:31:06.227Z,1.65
2022-08-12T11:34:04.320Z,1.02
2022-08-12T11:36:22.119Z,1.40
2022-08-12T11:38:50.836Z,1.15
2022-08-12T11:41:31.583Z,1.05
2022-08-12T11:44:36.846Z,1.02
2022-08-12T11:46:54.755Z,1.05
2022-08-12T11:49:31.047Z,1.20
2022-08-12T11:52:01.636Z,1.08
2022-08-12T11:54:29.551Z,1.25
2022-08-12T11:57:02.482Z,1.20
2022-08-12T12:02:20.573Z,1.40
2022-08-12T12:04:52.496Z,0.90
2022-08-12T12:08:36.495Z,1.52
2022-08-12T12:10:15.361Z,1.20
2022-08-12T12:12:49.742Z,1.30
2022-08-12T12:15:24.971Z,1.27
2022-08-12T12:18:04.728Z,0.90
2022-08-12T12:20:31.943Z,1.10
2022-08-12T12:22:58.997Z,1.40
2022-08-12T12:26:06.647Z,1.17
2022-08-12T12:28:36.538Z,1.23
2022-08-12T12:31:01.791Z,1.25
2022-08-12T12:33:57.180Z,1.43
2022-08-12T12:36:23.129Z,1.42
2022-08-12T12:38:53.669Z,1.30
2022-08-12T12:41:20.728Z,1.20
2022-08-12T12:43:56.521Z,1.23
2022-08-12T12:46:31.095Z,1.35
2022-08-12T12:48:58.568Z,1.10
2022-08-12T12:52:06.739Z,1.58
2022-08-12T12:54:13.344Z,1.33
2022-08-12T12:56:44.522Z,1.13
2022-08-12T12:59:54.996Z,1.23
2022-08-12T13:02:07.823Z,1.45
2022-08-12T13:04:37.329Z,1.27
2022-08-12T13:07:06.436Z,1.70
2022-08-12T13:09:36.490Z,1.20
2022-08-12T13:12:11.333Z,1.20
2022-08-12T13:14:39.807Z,1.20
2022-08-12T13:17:09.776Z,0.98
2022-08-12T13:19:45.237Z,1.25
2022-08-12T13:22:23.592Z,1.20
2022-08-12T13:24:55.833Z,1.10
2022-08-12T13:27:36.540Z,1.33
2022-08-12T13:30:06.823Z,1.33
2022-08-12T13:32:37.816Z,1.17
2022-08-12T13:35:19.898Z,1.20
2022-08-12T13:37:56.172Z,1.10
2022-08-12T13:40:32.017Z,1.33
2022-08-12T13:43:02.138Z,1.38
2022-08-12T13:45:33.316Z,1.20
2022-08-12T13:48:03.431Z,1.20
2022-08-12T13:50:43.690Z,1.10
2022-08-12T13:53:24.322Z,1.20
2022-08-12T13:55:59.505Z,1.10
2022-08-12T13:58:30.181Z,1.30
2022-08-12T14:00:58.729Z,1.25
2022-08-12T14:03:28.493Z,1.20
2022-08-12T14:06:15.396Z,1.30
2022-08-12T14:08:43.894Z,1.25
2022-08-12T14:11:12.417Z,1.20
2022-08-12T14:14:04.259Z,1.30
2022-08-12T14:16:46.986Z,1.13
2022-08-12T14:19:25.612Z,1.30
2022-08-12T14:22:00.489Z,0.90
2022-08-12T14:24:35.768Z,0.88
2022-08-12T14:27:08.957Z,0.90
2022-08-12T14:30:05.591Z,1.10
2022-08-12T14:32:27.060Z,1.40
2022-08-12T14:34:56.520Z,1.00
2022-08-12T14:37:57.113Z,1.05
2022-08-12T14:40:18.395Z,1.20
2022-08-12T14:42:46.870Z,1.02
2022-08-12T14:45:14.569Z,1.10
2022-08-12T14:47:58.608Z,1.20
2022-08-12T14:50:58.761Z,1.20
2022-08-12T14:55:19.560Z,1.20
2022-08-12T14:59:20.386Z,1.13
2022-08-12T15:01:52.168Z,1.10
2022-08-12T15:04:29.207Z,1.27
2022-08-12T15:06:56.753Z,1.10
2022-08-12T15:09:29.363Z,1.17
2022-08-12T15:12:03.416Z,0.98
2022-08-12T15:14:31.936Z,1.20
2022-08-12T15:16:59.948Z,0.98
2022-08-12T15:20:31.985Z,1.30
2022-08-12T15:22:37.556Z,1.10
2022-08-12T15:25:07.630Z,1.20
2022-08-12T15:28:04.709Z,1.33
2022-08-12T15:30:32.712Z,1.38
2022-08-12T15:33:12.189Z,1.20
2022-08-12T15:35:52.173Z,1.13
2022-08-12T15:38:27.733Z,1.10
2022-08-12T15:40:56.588Z,1.10
2022-08-12T15:44:17.026Z,1.00
2022-08-12T15:46:16.146Z,0.70
2022-08-12T15:48:47.584Z,1.13
2022-08-12T15:51:58.133Z,0.75
2022-08-12T15:54:33.498Z,1.08
2022-08-12T15:57:07.647Z,0.75
2022-08-12T16:00:00.609Z,0.98
2022-08-12T16:02:26.663Z,0.93
2022-08-12T16:04:55.067Z,0.80
2022-08-12T16:07:30.227Z,0.70
2022-08-12T16:10:04.972Z,0.77
2022-08-12T16:12:43.705Z,0.90
2022-08-12T16:15:25.088Z,0.90
2022-08-12T16:18:17.749Z,1.00
2022-08-12T16:20:46.777Z,0.98
2022-08-12T16:23:36.423Z,0.77
2022-08-12T16:26:14.798Z,0.80
2022-08-12T16:28:47.531Z,1.00
2022-08-12T16:31:22.638Z,1.00
2022-08-12T16:33:59.467Z,1.10
2022-08-12T16:36:29.140Z,1.00
2022-08-12T16:38:56.511Z,0.98
2022-08-12T16:41:23.809Z,1.02
2022-08-12T16:43:53.125Z,1.00
2022-08-12T16:46:32.216Z,0.80
2022-08-12T16:49:04.266Z,1.05
2022-08-12T16:51:40.824Z,0.90
2022-08-12T16:54:16.226Z,1.23
2022-08-12T16:59:53.131Z,0.77
2022-08-12T17:02:31.927Z,0.85
2022-08-12T17:05:04.800Z,0.90
2022-08-12T17:07:36.884Z,0.98
2022-08-12T17:10:08.432Z,0.88
2022-08-12T17:15:50.856Z,1.38
2022-08-12T17:18:39.041Z,0.90
2022-08-12T17:20:46.990Z,1.05
2022-08-12T17:23:19.625Z,0.98
2022-08-12T17:25:48.334Z,0.95
2022-08-12T17:28:16.777Z,1.23
2022-08-12T17:30:44.966Z,1.02
2022-08-12T17:33:17.107Z,0.80
2022-08-12T17:35:52.256Z,0.90
2022-08-12T17:38:21.232Z,1.00
2022-08-12T17:40:48.833Z,0.88
2022-08-12T17:43:57.798Z,0.73
2022-08-12T17:46:12.898Z,0.70
2022-08-12T17:48:54.903Z,1.00
2022-08-12T17:51:24.616Z,0.70
2022-08-12T17:54:05.814Z,0.60
2022-08-12T17:56:37.395Z,1.02
2022-08-12T17:59:07.442Z,0.70
2022-08-12T18:01:35.986Z,0.80
2022-08-12T18:04:21.534Z,0.60
2022-08-12T18:06:52.061Z,0.77
2022-08-12T18:09:19.635Z,0.93
2022-08-12T18:12:08.104Z,0.77
2022-08-12T18:14:36.674Z,0.70
2022-08-12T18:17:08.680Z,1.02
2022-08-12T18:20:06.697Z,0.80
2022-08-12T18:22:30.885Z,0.80
2022-08-12T18:25:02.783Z,0.85
2022-08-12T18:27:44.493Z,0.90
2022-08-12T18:30:20.716Z,0.57
2022-08-12T18:33:03.521Z,0.85
2022-08-12T18:35:47.639Z,0.75
2022-08-12T18:38:21.863Z,1.00
2022-08-12T18:41:10.438Z,0.75
2022-08-12T18:44:00.246Z,1.10
2022-08-12T18:46:46.666Z,0.73
2022-08-12T18:49:29.770Z,1.30
2022-08-12T18:52:04.299Z,1.05
2022-08-12T18:54:35.520Z,1.23
2022-08-12T19:00:06.419Z,1.02
2022-08-12T19:02:39.675Z,1.02
2022-08-12T19:05:11.067Z,1.65
2022-08-12T19:07:49.944Z,1.50
2022-08-12T19:10:26.228Z,1.80
2022-08-12T19:13:18.509Z,1.50
2022-08-12T19:15:48.806Z,1.17
2022-08-12T19:18:17.363Z,1.23
2022-08-12T19:20:50.962Z,1.40
2022-08-12T19:23:20.866Z,1.10
2022-08-12T19:25:59.615Z,1.38
2022-08-12T19:28:38.527Z,1.60
2022-08-12T19:31:45.291Z,1.40
2022-08-12T19:37:38.430Z,1.20
2022-08-12T19:40:31.030Z,1.80
2022-08-12T19:43:13.356Z,1.33
2022-08-12T19:45:53.662Z,1.40
2022-08-12T19:48:23.809Z,1.52
2022-08-12T19:50:56.862Z,1.45
2022-08-12T19:53:27.460Z,1.20
2022-08-12T19:55:57.205Z,1.10
2022-08-12T19:58:26.808Z,1.20
2022-08-12T20:00:55.612Z,1.50
2022-08-12T20:03:40.026Z,1.23
2022-08-12T20:06:15.575Z,1.45
2022-08-12T20:08:48.806Z,1.63
2022-08-12T20:12:12.662Z,1.60
2022-08-12T20:14:11.764Z,1.42
2022-08-12T20:16:57.531Z,1.50
2022-08-12T20:20:01.352Z,1.50
2022-08-12T20:22:24.181Z,1.30
2022-08-12T20:25:01.561Z,1.80
2022-08-12T20:28:05.235Z,2.20
2022-08-12T20:30:52.360Z,2.03
2022-08-12T20:33:18.719Z,1.70
2022-08-12T20:36:06.818Z,1.65
2022-08-12T20:38:40.111Z,1.48
2022-08-12T20:41:17.727Z,1.80
2022-08-12T20:43:52.091Z,1.42
2022-08-12T20:46:20.132Z,1.60
2022-08-12T20:48:55.311Z,1.63
2022-08-12T20:51:27.600Z,1.73
2022-08-12T20:53:59.243Z,1.83
2022-08-12T20:56:30.809Z,1.50
2022-08-12T20:59:01.273Z,1.83
2022-08-12T21:01:47.064Z,1.58
2022-08-12T21:04:36.693Z,2.10
2022-08-12T21:07:09.697Z,2.08
2022-08-12T21:09:48.108Z,1.95
2022-08-12T21:12:27.306Z,2.08
2022-08-12T21:15:23.807Z,1.90
2022-08-12T21:18:09.806Z,2.00
2022-08-12T21:20:52.894Z,1.90
2022-08-12T21:23:22.604Z,1.90
2022-08-12T21:25:51.876Z,1.50
2022-08-12T21:28:20.975Z,1.90
2022-08-12T21:32:34.847Z,1.80
2022-08-12T21:34:07.959Z,1.73
2022-08-12T21:36:32.315Z,2.10
2022-08-12T21:39:20.908Z,1.70
2022-08-12T21:41:56.187Z,1.88
2022-08-12T21:45:45.685Z,1.58
2022-08-12T21:47:20.902Z,1.80
2022-08-12T21:50:03.306Z,1.60
2022-08-12T21:52:42.113Z,1.60
2022-08-12T21:55:18.310Z,1.85
2022-08-12T21:57:53.196Z,1.80
2022-08-12T22:00:31.733Z,2.00
2022-08-12T22:03:25.159Z,2.00
2022-08-12T22:06:31.553Z,2.00
2022-08-12T22:09:16.175Z,2.30
2022-08-12T22:11:49.177Z,1.73
2022-08-12T22:14:24.345Z,1.90
2022-08-12T22:16:54.016Z,2.28
2022-08-12T22:19:23.031Z,1.67
2022-08-12T22:21:53.896Z,2.05
2022-08-12T22:24:26.792Z,1.90
2022-08-12T22:27:08.056Z,1.90
2022-08-12T22:30:16.805Z,1.85
2022-08-12T22:32:55.014Z,1.75
2022-08-12T22:35:56.212Z,1.83
2022-08-12T22:38:25.054Z,2.13
2022-08-12T22:40:55.901Z,1.98
2022-08-12T22:44:00.686Z,2.30
2022-08-12T22:46:52.838Z,1.85
2022-08-12T22:49:36.541Z,2.20
2022-08-12T22:52:14.315Z,2.10
2022-08-12T22:55:02.212Z,2.15
2022-08-12T22:57:53.896Z,2.08
2022-08-12T23:00:24.324Z,2.10
2022-08-12T23:03:03.437Z,2.10
2022-08-12T23:05:37.036Z,2.17
2022-08-12T23:08:30.093Z,2.05
2022-08-12T23:11:06.078Z,2.38
2022-08-12T23:13:54.856Z,2.42
2022-08-12T23:16:31.023Z,2.10
2022-08-12T23:19:09.846Z,1.92
2022-08-12T23:22:05.036Z,1.85
2022-08-12T23:24:37.133Z,2.10
2022-08-12T23:27:24.932Z,2.13
2022-08-12T23:30:19.299Z,2.53
2022-08-12T23:32:54.490Z,1.90
2022-08-12T23:35:45.827Z,2.17
2022-08-12T23:38:30.162Z,2.42
2022-08-12T23:41:03.959Z,2.20
2022-08-12T23:43:40.809Z,2.45
2022-08-12T23:46:19.310Z,1.85
2022-08-12T23:48:51.667Z,2.53
2022-08-12T23:51:26.869Z,2.30
2022-08-12T23:54:04.115Z,2.28
2022-08-12T23:56:34.964Z,2.15
2022-08-12T23:59:07.003Z,2.30
